Time;durP1;ratioP1;P1;durP2;ratioP2;P2;SDS_P1;SDS_P2;PMS_P1;PMS_P2;Temp;Humidity;BMP_temperature;BMP_pressure;BME280_temperature;BME280_humidity;BME280_pressure;Samples;Min_cycle;Max_cycle;Signal;HPM_P1;HPM_P2
2023/04/16 00:02:12;;;;;;;24.98;14.77;;;8.40;99.90;;;;;;6247480;22;20111;-80
2023/04/16 00:04:40;;;;;;;31.65;16.75;;;8.40;99.90;;;;;;6221461;22;20098;-79
2023/04/16 00:07:09;;;;;;;29.48;16.27;;;8.20;99.90;;;;;;6249939;22;20439;-80
2023/04/16 00:09:36;;;;;;;30.80;15.85;;;8.20;99.90;;;;;;6274073;22;20455;-80
2023/04/16 00:12:03;;;;;;;28.83;16.70;;;8.20;99.90;;;;;;6246866;22;20028;-80
2023/04/16 00:14:30;;;;;;;26.75;16.15;;;8.20;99.90;;;;;;6245178;22;20030;-80
2023/04/16 00:16:58;;;;;;;30.08;15.13;;;8.20;99.90;;;;;;6246902;22;20034;-80
2023/04/16 00:19:25;;;;;;;30.65;15.43;;;8.20;99.90;;;;;;6274307;22;20077;-80
2023/04/16 00:21:52;;;;;;;27.15;15.65;;;8.20;99.90;;;;;;6221955;22;20030;-80
2023/04/16 00:24:19;;;;;;;31.55;15.07;;;8.10;99.90;;;;;;6221519;22;20019;-80
2023/04/16 00:26:46;;;;;;;28.75;15.30;;;8.10;99.90;;;;;;6220990;22;20019;-80
2023/04/16 00:29:14;;;;;;;26.15;13.98;;;8.00;99.90;;;;;;6246186;22;20012;-80
2023/04/16 00:31:41;;;;;;;25.10;13.30;;;8.00;99.90;;;;;;6221991;22;20466;-80
2023/04/16 00:34:08;;;;;;;22.80;13.35;;;8.00;99.90;;;;;;6246645;22;20026;-80
2023/04/16 00:36:35;;;;;;;22.85;12.05;;;7.90;99.90;;;;;;6221950;22;20461;-80
2023/04/16 00:39:02;;;;;;;24.00;12.35;;;7.90;99.90;;;;;;6221219;22;20027;-80
2023/04/16 00:41:29;;;;;;;24.73;12.75;;;8.00;99.90;;;;;;6221113;22;20106;-81
2023/04/16 00:43:56;;;;;;;23.17;13.15;;;8.00;99.90;;;;;;6245896;22;20047;-80
2023/04/16 00:46:24;;;;;;;22.65;12.45;;;8.00;99.90;;;;;;6245718;22;20020;-80
2023/04/16 00:48:53;;;;;;;23.67;11.75;;;8.00;99.90;;;;;;6246049;22;20020;-80
2023/04/16 00:51:21;;;;;;;20.02;11.45;;;8.00;99.90;;;;;;6246323;22;20023;-80
2023/04/16 00:53:49;;;;;;;20.05;10.93;;;7.90;99.90;;;;;;6246552;22;20012;-80
2023/04/16 00:56:17;;;;;;;20.90;11.10;;;7.90;99.90;;;;;;6246676;22;20073;-80
2023/04/16 00:58:44;;;;;;;22.95;12.07;;;7.90;99.90;;;;;;6221117;22;20022;-80
2023/04/16 01:01:13;;;;;;;20.80;10.93;;;7.90;99.90;;;;;;6221781;22;20016;-80
2023/04/16 01:03:44;;;;;;;21.58;11.30;;;7.90;99.90;;;;;;6245654;22;20047;-80
2023/04/16 01:06:12;;;;;;;20.52;10.70;;;7.80;99.90;;;;;;6220901;22;20443;-80
2023/04/16 01:08:39;;;;;;;23.38;11.48;;;7.80;99.90;;;;;;6247103;22;20020;-80
2023/04/16 01:11:06;;;;;;;20.13;11.32;;;7.70;99.90;;;;;;6220604;22;20019;-80
2023/04/16 01:13:37;;;;;;;20.67;11.38;;;7.70;99.90;;;;;;6245759;22;20790;-80
2023/04/16 01:16:10;;;;;;;19.00;10.82;;;7.70;99.90;;;;;;6222528;22;20106;-80
2023/04/16 01:18:37;;;;;;;20.47;11.40;;;7.80;99.90;;;;;;6222072;22;20050;-80
2023/04/16 01:21:05;;;;;;;20.33;11.15;;;7.70;99.90;;;;;;6246463;22;20298;-80
2023/04/16 01:23:32;;;;;;;19.40;11.00;;;7.70;99.90;;;;;;6221737;22;20019;-80
2023/04/16 01:25:59;;;;;;;18.13;10.48;;;7.70;99.90;;;;;;6221687;22;20351;-80
2023/04/16 01:28:26;;;;;;;19.35;10.05;;;7.60;99.90;;;;;;6221421;22;20066;-81
2023/04/16 01:30:53;;;;;;;18.38;10.00;;;7.50;99.90;;;;;;6245404;22;20022;-80
2023/04/16 01:33:41;;;;;;;19.08;10.23;;;7.60;99.90;;;;;;6249511;22;20086;-80
2023/04/16 01:36:10;;;;;;;17.83;10.57;;;7.50;99.90;;;;;;6245196;22;20019;-81
2023/04/16 01:38:37;;;;;;;19.40;10.10;;;7.50;99.90;;;;;;6244655;22;20369;-80
2023/04/16 01:41:04;;;;;;;18.73;10.52;;;7.50;99.90;;;;;;6248776;22;20530;-80
2023/04/16 01:43:32;;;;;;;18.13;10.27;;;7.50;99.90;;;;;;6245677;22;20023;-80
2023/04/16 01:46:29;;;;;;;19.17;9.73;;;7.50;99.90;;;;;;6221748;22;20804;-80
2023/04/16 01:49:01;;;;;;;18.55;9.55;;;7.50;99.90;;;;;;6246161;22;20070;-80
2023/04/16 01:51:28;;;;;;;14.70;8.50;;;7.50;99.90;;;;;;6220964;22;20020;-80
2023/04/16 01:53:57;;;;;;;19.23;9.93;;;7.50;99.90;;;;;;6220781;22;20259;-80
2023/04/16 01:56:24;;;;;;;15.95;8.75;;;7.50;99.90;;;;;;6219969;22;20023;-80
2023/04/16 01:58:52;;;;;;;19.13;9.82;;;7.50;99.90;;;;;;6221112;22;20026;-80
2023/04/16 02:01:19;;;;;;;19.52;10.10;;;7.40;99.90;;;;;;6219843;22;20031;-80
2023/04/16 02:03:47;;;;;;;21.40;10.07;;;7.40;99.90;;;;;;6219137;22;20741;-80
2023/04/16 02:06:15;;;;;;;17.27;10.02;;;7.40;99.90;;;;;;6243443;22;20019;-80
2023/04/16 02:08:42;;;;;;;20.73;10.73;;;7.40;99.90;;;;;;6245176;22;20019;-80
2023/04/16 02:11:10;;;;;;;20.25;10.20;;;7.30;99.90;;;;;;6218927;22;20031;-80
2023/04/16 02:13:37;;;;;;;20.13;10.70;;;7.20;99.90;;;;;;6219991;22;20016;-80
2023/04/16 02:16:04;;;;;;;15.95;9.80;;;7.30;99.90;;;;;;6221064;22;20055;-79
2023/04/16 02:18:59;;;;;;;16.00;9.77;;;7.20;99.90;;;;;;6228223;22;20019;-80
2023/04/16 02:21:30;;;;;;;18.13;10.38;;;7.20;99.90;;;;;;6220898;22;20069;-80
2023/04/16 02:23:57;;;;;;;17.05;9.43;;;7.20;99.90;;;;;;6220234;22;20028;-80
2023/04/16 02:26:28;;;;;;;21.42;9.93;;;7.20;99.90;;;;;;6221537;22;20027;-80
2023/04/16 02:29:00;;;;;;;;;;;7.20;99.90;;;;;;6224521;22;20016;-80
2023/04/16 02:31:35;;;;;;;18.52;9.68;;;7.10;99.90;;;;;;6221851;22;19923;-80
2023/04/16 02:34:03;;;;;;;16.85;9.07;;;7.10;99.90;;;;;;6219261;22;20039;-79
2023/04/16 02:36:31;;;;;;;16.35;9.15;;;7.10;99.90;;;;;;6218023;22;20020;-80
2023/04/16 02:38:58;;;;;;;18.17;10.13;;;7.00;99.90;;;;;;6219171;22;20420;-80
2023/04/16 02:41:25;;;;;;;16.83;9.60;;;7.00;99.90;;;;;;6170574;22;20103;-80
2023/04/16 02:43:52;;;;;;;18.77;10.60;;;7.10;99.90;;;;;;6222729;22;20030;-79
2023/04/16 02:46:19;;;;;;;19.00;10.25;;;7.10;99.90;;;;;;6222391;22;20047;-80
2023/04/16 02:48:47;;;;;;;18.83;9.75;;;7.00;99.90;;;;;;6222595;22;20440;-80
2023/04/16 02:51:14;;;;;;;17.92;9.57;;;6.90;99.90;;;;;;6224244;22;20023;-80
2023/04/16 02:53:44;;;;;;;14.52;8.95;;;6.90;99.90;;;;;;6221224;22;20016;-80
2023/04/16 02:56:12;;;;;;;18.40;10.07;;;6.90;99.90;;;;;;6222832;22;20019;-80
2023/04/16 02:58:39;;;;;;;16.90;10.57;;;6.90;99.90;;;;;;6246591;22;20135;-80
2023/04/16 03:01:06;;;;;;;18.17;9.75;;;6.80;99.90;;;;;;6222035;22;20697;-80
2023/04/16 03:03:33;;;;;;;20.95;10.23;;;6.80;99.90;;;;;;6222271;22;20026;-80
2023/04/16 03:06:00;;;;;;;19.63;9.68;;;6.70;99.90;;;;;;6222394;22;20020;-80
2023/04/16 03:08:28;;;;;;;16.52;8.90;;;6.70;99.90;;;;;;6220357;22;20085;-79
2023/04/16 03:10:55;;;;;;;16.52;9.20;;;6.90;99.90;;;;;;6221319;22;20027;-79
2023/04/16 03:13:22;;;;;;;18.90;9.95;;;6.90;99.90;;;;;;6220953;22;20026;-80
2023/04/16 03:15:49;;;;;;;19.45;10.68;;;6.90;99.90;;;;;;6222868;22;20015;-80
2023/04/16 03:18:16;;;;;;;17.92;9.38;;;6.90;99.90;;;;;;6221327;22;20078;-80
2023/04/16 03:20:43;;;;;;;20.05;10.63;;;6.90;99.90;;;;;;6221860;22;20027;-80
2023/04/16 03:23:10;;;;;;;19.27;10.38;;;6.90;99.90;;;;;;6246544;22;20022;-80
2023/04/16 03:25:39;;;;;;;18.92;10.63;;;6.80;99.90;;;;;;6221806;22;20198;-80
2023/04/16 03:28:08;;;;;;;20.23;10.30;;;6.80;99.90;;;;;;6246589;22;20027;-80
2023/04/16 03:30:36;;;;;;;19.88;10.70;;;6.80;99.90;;;;;;6220314;22;20074;-80
2023/04/16 03:33:05;;;;;;;18.95;9.98;;;6.70;99.90;;;;;;6247290;22;20016;-80
2023/04/16 03:35:32;;;;;;;19.90;10.75;;;6.80;99.90;;;;;;6221691;22;20023;-80
2023/04/16 03:38:00;;;;;;;20.60;11.20;;;6.80;99.90;;;;;;6245879;22;20458;-79
2023/04/16 03:40:27;;;;;;;19.70;10.77;;;6.70;99.90;;;;;;6222710;22;20019;-80
2023/04/16 03:42:55;;;;;;;21.08;10.55;;;6.70;99.90;;;;;;6246698;22;20030;-80
2023/04/16 03:45:22;;;;;;;20.77;11.10;;;6.60;99.90;;;;;;6221130;22;20047;-80
2023/04/16 03:47:51;;;;;;;19.33;11.48;;;6.70;99.90;;;;;;6221027;22;20023;-80
2023/04/16 03:50:21;;;;;;;22.80;12.20;;;6.70;99.90;;;;;;6247569;22;20035;-80
2023/04/16 03:52:48;;;;;;;22.17;10.80;;;6.60;99.90;;;;;;6246992;22;20023;-80
2023/04/16 03:55:16;;;;;;;21.85;11.40;;;6.60;99.90;;;;;;6247394;22;20027;-80
2023/04/16 03:57:44;;;;;;;21.65;11.88;;;6.60;99.90;;;;;;6246575;22;20069;-80
2023/04/16 04:00:14;;;;;;;18.88;11.70;;;6.60;99.90;;;;;;6246011;22;20023;-80
2023/04/16 04:02:54;;;;;;;19.63;11.30;;;6.70;99.90;;;;;;6247113;22;20032;-80
2023/04/16 04:05:22;;;;;;;21.20;10.90;;;6.70;99.90;;;;;;6248267;22;20024;-81
2023/04/16 04:07:51;;;;;;;20.63;11.48;;;6.70;99.90;;;;;;6220960;22;20020;-79
2023/04/16 04:10:18;;;;;;;22.38;11.38;;;6.70;99.90;;;;;;6220665;22;20114;-80
2023/04/16 04:12:45;;;;;;;18.90;10.60;;;6.80;99.90;;;;;;6247038;22;20054;-80
2023/04/16 04:15:12;;;;;;;23.45;11.65;;;6.90;99.90;;;;;;6221321;22;20641;-80
2023/04/16 04:17:41;;;;;;;22.67;12.27;;;6.80;99.90;;;;;;6247031;22;20546;-80
2023/04/16 04:20:09;;;;;;;24.65;13.02;;;6.80;99.90;;;;;;6245483;22;20030;-80
2023/04/16 04:22:36;;;;;;;23.48;11.90;;;6.80;99.90;;;;;;6246195;22;20089;-80
2023/04/16 04:25:03;;;;;;;25.98;13.20;;;6.80;99.90;;;;;;6220423;22;20607;-80
2023/04/16 04:27:31;;;;;;;25.05;13.10;;;6.80;99.90;;;;;;6220855;22;20103;-80
2023/04/16 04:29:59;;;;;;;23.88;13.45;;;6.90;99.90;;;;;;6221756;22;20337;-80
2023/04/16 04:32:26;;;;;;;30.33;14.80;;;6.80;99.90;;;;;;6221174;22;20020;-80
2023/04/16 04:34:53;;;;;;;25.90;14.00;;;6.80;99.90;;;;;;6246722;22;20085;-80
2023/04/16 04:37:20;;;;;;;26.05;14.35;;;6.80;99.90;;;;;;6221941;22;20016;-80
2023/04/16 04:39:48;;;;;;;23.90;13.52;;;6.80;99.90;;;;;;6220303;22;20047;-80
2023/04/16 04:42:20;;;;;;;25.08;13.65;;;6.80;99.90;;;;;;6246656;22;20047;-81
2023/04/16 04:44:47;;;;;;;23.05;12.73;;;6.80;99.90;;;;;;6246673;22;20020;-81
2023/04/16 04:47:14;;;;;;;23.60;11.70;;;6.80;99.90;;;;;;6247321;22;20098;-80
2023/04/16 04:49:42;;;;;;;25.83;12.52;;;6.90;99.90;;;;;;6221401;22;20034;-81
2023/04/16 04:52:10;;;;;;;27.85;13.60;;;6.90;99.90;;;;;;6220539;22;20023;-80
2023/04/16 04:54:40;;;;;;;20.65;11.93;;;6.90;99.90;;;;;;6221422;22;20676;-81
2023/04/16 04:57:08;;;;;;;23.73;12.75;;;7.00;99.90;;;;;;6246481;22;20344;-81
2023/04/16 04:59:35;;;;;;;22.73;11.48;;;7.00;99.90;;;;;;6247231;22;20031;-81
2023/04/16 05:02:03;;;;;;;21.55;11.48;;;7.00;99.90;;;;;;6195910;22;20032;-80
2023/04/16 05:04:30;;;;;;;19.05;10.00;;;7.00;99.90;;;;;;6221305;22;20031;-80
2023/04/16 05:06:57;;;;;;;18.40;9.32;;;7.10;99.90;;;;;;6221467;22;20603;-80
2023/04/16 05:09:24;;;;;;;18.30;9.85;;;7.10;99.90;;;;;;6221464;22;20354;-80
2023/04/16 05:11:51;;;;;;;19.92;10.35;;;7.10;99.90;;;;;;6220456;22;20024;-81
2023/04/16 05:14:18;;;;;;;17.52;10.02;;;7.20;99.90;;;;;;6220792;22;20051;-80
2023/04/16 05:16:46;;;;;;;18.08;10.30;;;7.40;99.90;;;;;;6246223;22;20019;-80
2023/04/16 05:19:13;;;;;;;15.48;9.23;;;7.40;99.90;;;;;;6246836;22;20090;-80
2023/04/16 05:21:40;;;;;;;19.17;10.48;;;7.50;99.90;;;;;;6247766;22;20016;-81
2023/04/16 05:24:07;;;;;;;20.58;11.00;;;7.50;99.90;;;;;;6221867;22;20019;-80
2023/04/16 05:26:34;;;;;;;17.02;9.43;;;7.60;99.90;;;;;;6221587;22;20040;-80
2023/04/16 05:29:01;;;;;;;16.77;9.38;;;7.60;99.90;;;;;;6220831;22;20399;-80
2023/04/16 05:31:29;;;;;;;17.65;9.30;;;7.60;99.90;;;;;;6220538;22;20094;-81
2023/04/16 05:33:56;;;;;;;16.40;8.07;;;7.70;99.90;;;;;;6221013;22;20451;-81
2023/04/16 05:36:23;;;;;;;16.23;9.52;;;7.70;99.90;;;;;;6221413;22;20028;-80
2023/04/16 05:38:50;;;;;;;17.52;9.57;;;7.80;99.90;;;;;;6274589;22;20081;-80
2023/04/16 05:41:17;;;;;;;16.08;9.15;;;7.80;99.90;;;;;;6246639;22;20028;-81
2023/04/16 05:43:44;;;;;;;16.27;9.63;;;8.00;99.90;;;;;;6222694;22;20019;-81
2023/04/16 05:46:11;;;;;;;17.50;10.57;;;8.00;99.90;;;;;;6223345;22;20019;-81
2023/04/16 05:48:38;;;;;;;16.50;9.13;;;8.00;99.90;;;;;;6249073;22;20027;-81
2023/04/16 05:51:05;;;;;;;17.02;10.05;;;8.10;99.90;;;;;;6222902;22;20721;-80
2023/04/16 05:53:32;;;;;;;19.02;10.75;;;8.20;99.90;;;;;;6222107;22;20628;-80
2023/04/16 05:55:59;;;;;;;17.77;9.95;;;8.20;99.90;;;;;;6247772;22;20038;-81
2023/04/16 05:58:26;;;;;;;16.38;10.30;;;8.20;99.90;;;;;;6247798;22;20459;-81
2023/04/16 06:00:53;;;;;;;16.63;9.45;;;8.30;99.90;;;;;;6220974;22;20020;-80
2023/04/16 06:03:20;;;;;;;17.30;9.63;;;8.40;99.90;;;;;;6220808;22;20332;-80
2023/04/16 06:05:47;;;;;;;16.38;9.10;;;8.50;99.90;;;;;;6247974;22;20015;-81
2023/04/16 06:08:15;;;;;;;14.68;8.38;;;8.50;99.90;;;;;;6248858;22;20091;-81
2023/04/16 06:10:42;;;;;;;14.18;9.25;;;8.60;99.90;;;;;;6248732;22;20394;-81
2023/04/16 06:13:09;;;;;;;11.95;7.10;;;8.60;99.90;;;;;;6223072;22;20023;-81
2023/04/16 06:15:36;;;;;;;11.25;7.10;;;8.70;99.90;;;;;;6224096;22;20066;-81
2023/04/16 06:18:04;;;;;;;14.63;7.28;;;8.90;99.90;;;;;;6225582;22;20028;-81
2023/04/16 06:20:31;;;;;;;10.77;6.43;;;8.90;99.90;;;;;;6226396;22;20332;-81
2023/04/16 06:22:58;;;;;;;12.25;7.15;;;9.10;99.90;;;;;;6225190;22;20023;-81
2023/04/16 06:25:25;;;;;;;10.38;6.28;;;9.10;99.90;;;;;;6253867;22;20082;-81
2023/04/16 06:27:52;;;;;;;11.80;6.75;;;9.10;99.90;;;;;;6227317;22;20765;-80
2023/04/16 06:30:19;;;;;;;10.10;6.13;;;9.10;99.90;;;;;;6226312;22;20065;-81
2023/04/16 06:32:46;;;;;;;10.45;6.32;;;9.20;99.90;;;;;;6224737;22;20016;-81
2023/04/16 06:35:14;;;;;;;11.18;6.57;;;9.30;99.90;;;;;;6223915;22;20039;-80
2023/04/16 06:37:43;;;;;;;7.72;5.63;;;9.50;99.90;;;;;;6223976;22;20755;-81
2023/04/16 06:40:11;;;;;;;9.98;5.97;;;9.60;99.90;;;;;;6224160;22;20110;-80
2023/04/16 06:42:38;;;;;;;10.18;6.45;;;9.70;99.90;;;;;;6225261;22;20094;-81
2023/04/16 06:45:06;;;;;;;9.57;6.05;;;9.80;99.90;;;;;;6225794;22;20616;-81
2023/04/16 06:47:33;;;;;;;9.70;5.72;;;10.00;99.90;;;;;;6223575;22;20470;-80
2023/04/16 06:50:00;;;;;;;9.05;5.35;;;10.10;99.90;;;;;;6248835;22;20019;-80
2023/04/16 06:52:28;;;;;;;8.20;5.55;;;10.20;99.90;;;;;;6224561;22;20493;-81
2023/04/16 06:54:55;;;;;;;9.45;5.18;;;10.20;99.90;;;;;;6224815;22;20656;-81
2023/04/16 06:57:23;;;;;;;10.45;5.82;;;10.20;99.90;;;;;;6276396;22;20447;-81
2023/04/16 06:59:50;;;;;;;9.43;5.80;;;10.20;99.90;;;;;;6223572;22;20028;-81
2023/04/16 07:02:17;;;;;;;8.20;5.13;;;10.10;99.90;;;;;;6223888;22;20110;-81
2023/04/16 07:04:44;;;;;;;10.32;5.43;;;10.00;99.90;;;;;;6225098;22;20023;-81
2023/04/16 07:07:11;;;;;;;8.25;5.30;;;10.00;99.90;;;;;;6223538;22;20055;-80
2023/04/16 07:09:38;;;;;;;9.00;5.90;;;10.00;99.90;;;;;;6223859;22;20019;-80
2023/04/16 07:12:07;;;;;;;7.60;5.20;;;10.10;99.90;;;;;;6249054;22;20637;-81
2023/04/16 07:14:34;;;;;;;10.27;5.60;;;10.10;99.90;;;;;;6223903;22;20114;-80
2023/04/16 07:17:01;;;;;;;9.18;5.13;;;10.10;99.90;;;;;;6245044;22;20045;-80
2023/04/16 07:19:31;;;;;;;8.23;5.93;;;10.20;99.90;;;;;;6209490;22;20028;-81
2023/04/16 07:21:59;;;;;;;11.93;5.90;;;10.50;99.90;;;;;;6215660;22;20023;-81
2023/04/16 07:24:26;;;;;;;8.23;4.95;;;10.60;99.90;;;;;;6225202;22;20034;-80
2023/04/16 07:26:53;;;;;;;7.03;5.00;;;10.70;99.90;;;;;;6222961;22;20025;-80
2023/04/16 07:29:20;;;;;;;8.77;5.05;;;10.70;99.90;;;;;;6224933;22;20643;-81
2023/04/16 07:31:47;;;;;;;9.55;5.13;;;10.80;99.90;;;;;;6221058;22;20020;-81
2023/04/16 07:34:14;;;;;;;6.13;4.05;;;10.90;99.90;;;;;;6222216;22;20015;-81
2023/04/16 07:36:41;;;;;;;5.38;3.47;;;11.00;99.90;;;;;;6246958;22;20016;-80
2023/04/16 07:39:09;;;;;;;4.45;3.35;;;11.20;99.90;;;;;;6221210;22;20073;-80
2023/04/16 07:41:39;;;;;;;7.07;3.08;;;11.20;99.90;;;;;;6222720;22;20035;-81
2023/04/16 07:44:06;;;;;;;4.90;3.33;;;11.30;99.90;;;;;;6222839;22;20706;-81
2023/04/16 07:46:34;;;;;;;4.55;3.47;;;11.30;99.90;;;;;;6221412;22;20051;-81
2023/04/16 07:49:12;;;;;;;5.45;3.47;;;11.50;99.90;;;;;;6226490;22;20126;-82
2023/04/16 07:51:39;;;;;;;4.18;3.33;;;11.70;99.90;;;;;;6248758;22;20015;-81
2023/04/16 07:54:07;;;;;;;7.03;3.20;;;11.80;99.90;;;;;;6221836;22;20807;-81
2023/04/16 07:56:35;;;;;;;4.80;3.30;;;12.00;99.90;;;;;;6220991;22;20108;-80
2023/04/16 07:59:02;;;;;;;4.15;3.25;;;12.10;99.90;;;;;;6245172;22;20790;-80
2023/04/16 08:01:47;;;;;;;4.47;3.08;;;12.20;99.90;;;;;;6227044;22;20031;-81
2023/04/16 08:04:16;;;;;;;6.32;3.22;;;12.40;99.90;;;;;;6220261;22;20110;-81
2023/04/16 08:06:43;;;;;;;4.78;3.28;;;12.80;99.90;;;;;;6218251;22;20022;-80
2023/04/16 08:09:11;;;;;;;4.60;3.05;;;12.90;99.90;;;;;;6245540;22;20098;-80
2023/04/16 08:11:38;;;;;;;5.68;3.30;;;13.10;99.90;;;;;;6219021;22;20051;-81
2023/04/16 08:14:05;;;;;;;7.60;3.63;;;13.20;99.90;;;;;;6220498;22;20110;-80
2023/04/16 08:16:32;;;;;;;7.00;3.50;;;13.20;99.90;;;;;;6245808;22;20023;-80
2023/04/16 08:19:00;;;;;;;5.50;3.58;;;13.30;99.90;;;;;;6221406;22;20123;-80
2023/04/16 08:21:27;;;;;;;4.43;3.13;;;13.10;99.90;;;;;;6224356;22;20023;-80
2023/04/16 08:23:54;;;;;;;5.95;3.50;;;13.00;99.90;;;;;;6273559;22;20023;-80
2023/04/16 08:26:21;;;;;;;5.82;3.10;;;12.90;99.90;;;;;;6222146;22;20030;-80
2023/04/16 08:28:48;;;;;;;4.50;3.33;;;13.00;99.90;;;;;;6221403;22;20026;-80
2023/04/16 08:31:16;;;;;;;3.90;2.67;;;13.10;99.90;;;;;;6264985;22;20757;-80
2023/04/16 08:33:43;;;;;;;3.22;2.38;;;13.10;99.90;;;;;;6248542;22;20011;-81
2023/04/16 08:36:10;;;;;;;5.60;3.22;;;13.10;99.90;;;;;;6219330;22;20028;-81
2023/04/16 08:38:37;;;;;;;4.13;2.70;;;13.10;99.90;;;;;;6244160;22;20046;-80
2023/04/16 08:41:08;;;;;;;2.90;1.80;;;13.10;99.60;;;;;;6221090;22;20026;-80
2023/04/16 08:43:38;;;;;;;3.05;1.73;;;13.20;98.80;;;;;;6220849;22;20027;-80
2023/04/16 08:46:06;;;;;;;1.90;1.48;;;13.20;97.20;;;;;;6218346;22;20015;-80
2023/04/16 08:48:35;;;;;;;4.93;2.40;;;13.30;97.50;;;;;;6220214;22;20020;-81
2023/04/16 08:51:02;;;;;;;3.08;1.70;;;13.40;98.30;;;;;;6244260;22;20024;-80
2023/04/16 08:53:40;;;;;;;3.35;1.95;;;13.40;98.00;;;;;;6245277;22;20854;-80
2023/04/16 08:56:10;;;;;;;2.08;1.60;;;13.30;97.70;;;;;;6218208;22;20028;-81
2023/04/16 08:58:39;;;;;;;2.60;1.67;;;13.30;96.80;;;;;;6218639;22;20354;-80
2023/04/16 09:01:09;;;;;;;2.15;1.48;;;13.20;97.10;;;;;;6217175;22;20031;-80
2023/04/16 09:03:36;;;;;;;2.25;0.95;;;13.10;97.80;;;;;;6218185;22;20027;-80
2023/04/16 09:06:05;;;;;;;2.65;1.45;;;13.00;97.10;;;;;;6243054;22;20015;-80
2023/04/16 09:08:34;;;;;;;1.77;1.23;;;12.90;97.20;;;;;;6218718;22;20024;-79
2023/04/16 09:11:02;;;;;;;1.90;1.42;;;12.90;98.40;;;;;;6217620;22;20019;-79
2023/04/16 09:13:30;;;;;;;2.50;1.60;;;12.90;99.00;;;;;;6217909;22;20027;-79
2023/04/16 09:15:58;;;;;;;2.83;1.80;;;12.90;99.70;;;;;;6243624;22;20038;-78
2023/04/16 09:18:29;;;;;;;2.20;1.63;;;12.90;99.90;;;;;;6217447;22;20062;-78
2023/04/16 09:20:56;;;;;;;2.97;1.98;;;12.90;99.90;;;;;;6220697;22;20019;-80
2023/04/16 09:23:23;;;;;;;3.30;1.77;;;12.90;99.90;;;;;;6220384;22;20019;-79
2023/04/16 09:25:51;;;;;;;2.55;1.48;;;12.80;99.90;;;;;;6218928;22;20027;-79
2023/04/16 09:28:40;;;;;;;2.67;1.83;;;12.80;99.00;;;;;;6217522;22;20350;-79
2023/04/16 09:31:15;;;;;;;2.50;2.15;;;12.90;99.20;;;;;;6217579;22;20355;-79
2023/04/16 09:33:59;;;;;;;3.28;2.70;;;13.00;98.90;;;;;;6245333;22;20103;-81
2023/04/16 09:36:26;;;;;;;3.40;1.65;;;13.20;98.80;;;;;;6218853;22;20016;-81
2023/04/16 09:38:54;;;;;;;2.35;1.55;;;13.40;97.20;;;;;;6218825;22;20024;-81
2023/04/16 09:41:28;;;;;;;3.17;2.13;;;13.50;97.20;;;;;;6217982;22;20506;-80
2023/04/16 09:43:56;;;;;;;1.75;1.50;;;13.50;96.20;;;;;;6217330;22;20030;-81
2023/04/16 09:46:34;;;;;;;2.67;1.52;;;13.60;96.70;;;;;;6270935;22;20020;-80
2023/04/16 09:49:08;;;;;;;3.47;2.08;;;13.70;96.80;;;;;;6216239;22;20696;-80
2023/04/16 09:51:37;;;;;;;2.72;1.92;;;13.80;96.80;;;;;;6241721;22;20714;-80
2023/04/16 09:54:05;;;;;;;3.63;1.73;;;13.90;96.20;;;;;;6240643;22;20019;-80
2023/04/16 09:56:33;;;;;;;5.50;2.63;;;14.00;95.30;;;;;;6247156;22;20355;-81
2023/04/16 09:59:00;;;;;;;6.35;3.00;;;14.10;94.90;;;;;;6223014;22;20020;-80
2023/04/16 10:01:29;;;;;;;8.68;2.78;;;14.20;95.40;;;;;;6218447;22;20733;-81
2023/04/16 10:03:58;;;;;;;6.63;2.25;;;14.30;94.80;;;;;;6218288;22;20127;-80
2023/04/16 10:06:28;;;;;;;5.30;2.05;;;14.50;94.50;;;;;;6215651;22;20020;-79
2023/04/16 10:08:55;;;;;;;2.25;1.40;;;14.60;93.90;;;;;;6218436;22;20024;-80
2023/04/16 10:11:23;;;;;;;2.95;1.23;;;14.50;93.40;;;;;;6226103;22;20359;-81
2023/04/16 10:13:50;;;;;;;2.17;1.42;;;14.60;93.20;;;;;;6243372;22;20026;-80
2023/04/16 10:16:17;;;;;;;2.03;1.35;;;14.70;92.40;;;;;;6219120;22;20024;-80
2023/04/16 10:18:46;;;;;;;1.50;1.00;;;14.60;92.50;;;;;;6223563;22;20046;-80
2023/04/16 10:21:15;;;;;;;2.20;1.20;;;14.70;93.10;;;;;;6224233;22;20016;-80
2023/04/16 10:23:43;;;;;;;2.10;1.35;;;14.70;92.60;;;;;;6247215;22;20016;-81
2023/04/16 10:26:10;;;;;;;2.55;1.50;;;14.80;92.30;;;;;;6248780;22;20137;-80
2023/04/16 10:28:37;;;;;;;3.08;1.17;;;14.90;92.50;;;;;;6247638;22;20068;-79
2023/04/16 10:31:06;;;;;;;3.17;1.58;;;15.10;91.20;;;;;;6248610;22;20437;-82
2023/04/16 10:33:38;;;;;;;3.78;1.10;;;15.20;91.50;;;;;;6227666;22;20430;-80
2023/04/16 10:36:11;;;;;;;2.03;0.70;;;15.70;91.30;;;;;;6247559;22;20332;-80
2023/04/16 10:38:51;;;;;;;2.50;1.17;;;16.10;90.40;;;;;;6221807;22;20012;-80
2023/04/16 10:41:21;;;;;;;1.95;1.00;;;16.30;90.30;;;;;;6221209;22;20466;-81
2023/04/16 10:43:52;;;;;;;2.50;1.50;;;16.40;88.70;;;;;;6221562;22;20054;-77
2023/04/16 10:46:25;;;;;;;3.47;0.88;;;16.40;87.40;;;;;;6272615;22;20016;-80
2023/04/16 10:48:54;;;;;;;2.10;0.98;;;16.50;87.90;;;;;;6221504;22;20085;-80
2023/04/16 10:51:30;;;;;;;2.55;0.63;;;16.50;87.20;;;;;;6244894;22;20027;-79
2023/04/16 10:54:13;;;;;;;1.88;0.60;;;16.50;86.50;;;;;;6243879;22;20074;-79
2023/04/16 10:56:43;;;;;;;4.95;0.70;;;16.30;84.30;;;;;;6218806;22;20031;-80
2023/04/16 10:59:10;;;;;;;1.98;0.70;;;16.20;82.30;;;;;;6217950;22;20028;-78
2023/04/16 11:01:46;;;;;;;3.00;1.50;;;16.20;83.80;;;;;;6246401;22;20023;-80
2023/04/16 11:04:19;;;;;;;3.90;1.00;;;16.20;82.80;;;;;;6246107;22;20398;-78
2023/04/16 11:07:15;;;;;;;2.00;1.00;;;16.10;81.80;;;;;;6223163;22;20633;-79
2023/04/16 11:09:50;;;;;;;3.00;0.50;;;16.00;83.70;;;;;;6221621;22;20023;-79
2023/04/16 11:12:19;;;;;;;1.42;0.63;;;16.00;83.00;;;;;;6220710;22;20111;-78
2023/04/16 11:14:52;;;;;;;2.53;0.60;;;16.00;83.00;;;;;;6220715;22;20026;-78
2023/04/16 11:17:19;;;;;;;;;;;15.90;81.50;;;;;;6220903;22;20023;-80
2023/04/16 11:19:47;;;;;;;1.70;0.65;;;15.90;82.20;;;;;;6221674;22;19950;-79
2023/04/16 11:22:16;;;;;;;4.13;1.40;;;16.00;82.20;;;;;;6222598;22;20030;-80
2023/04/16 11:24:44;;;;;;;1.90;0.77;;;16.10;83.10;;;;;;6220805;22;20050;-79
2023/04/16 11:27:15;;;;;;;1.15;0.52;;;16.10;81.30;;;;;;6246702;22;20051;-80
2023/04/16 11:29:42;;;;;;;3.40;0.52;;;16.10;81.20;;;;;;6221332;22;20030;-79
2023/04/16 11:32:22;;;;;;;0.73;0.40;;;16.10;81.90;;;;;;6221835;22;20023;-78
2023/04/16 11:34:50;;;;;;;0.80;0.30;;;16.10;80.80;;;;;;6222794;22;20022;-79
2023/04/16 11:37:31;;;;;;;1.80;0.40;;;16.10;79.40;;;;;;6221385;22;20100;-80
2023/04/16 11:39:58;;;;;;;2.45;0.30;;;16.10;79.20;;;;;;6221461;22;20023;-79
2023/04/16 11:42:27;;;;;;;2.78;0.50;;;16.10;79.80;;;;;;6247773;22;20359;-78
2023/04/16 11:44:56;;;;;;;1.10;0.30;;;16.20;79.50;;;;;;6221448;22;20818;-80
2023/04/16 11:47:23;;;;;;;0.93;0.30;;;16.20;79.60;;;;;;6224064;22;20103;-78
2023/04/16 11:49:51;;;;;;;0.90;0.30;;;16.20;80.50;;;;;;6221646;22;20522;-77
2023/04/16 11:52:26;;;;;;;1.65;0.30;;;16.20;81.10;;;;;;6220827;22;20081;-77
2023/04/16 11:54:53;;;;;;;0.50;0.30;;;16.30;80.00;;;;;;6274358;22;20014;-77
2023/04/16 11:57:29;;;;;;;1.38;0.40;;;16.40;80.30;;;;;;6246948;22;20023;-81
2023/04/16 11:59:57;;;;;;;0.60;0.30;;;16.40;79.20;;;;;;6249021;22;20016;-80
2023/04/16 12:02:53;;;;;;;1.02;0.30;;;16.30;79.50;;;;;;6249741;22;20024;-79
2023/04/16 12:05:36;;;;;;;1.10;0.40;;;16.40;78.40;;;;;;6272713;22;20451;-78
2023/04/16 12:08:08;;;;;;;1.48;0.40;;;16.40;80.20;;;;;;6220172;22;20830;-81
2023/04/16 12:10:54;;;;;;;0.43;0.30;;;16.40;77.90;;;;;;6221514;22;20458;-80
2023/04/16 12:13:21;;;;;;;0.57;0.30;;;16.50;76.70;;;;;;6222549;22;20705;-80
2023/04/16 12:15:54;;;;;;;0.90;0.30;;;16.60;77.70;;;;;;6222367;22;20034;-80
2023/04/16 12:18:24;;;;;;;0.90;0.40;;;16.80;80.00;;;;;;6247695;22;20035;-80
2023/04/16 12:20:52;;;;;;;1.75;0.70;;;16.80;75.90;;;;;;6245981;22;20027;-80
2023/04/16 12:23:23;;;;;;;1.30;0.82;;;16.90;76.40;;;;;;6220160;22;20027;-80
2023/04/16 12:25:50;;;;;;;0.90;0.40;;;16.90;76.40;;;;;;6245909;22;20028;-80
2023/04/16 12:28:37;;;;;;;2.25;0.47;;;17.00;77.80;;;;;;6221705;22;20023;-79
2023/04/16 12:31:05;;;;;;;1.13;0.40;;;17.00;76.30;;;;;;6221058;22;20036;-78
2023/04/16 12:33:32;;;;;;;0.70;0.30;;;17.00;76.20;;;;;;6221422;22;20019;-79
2023/04/16 12:36:00;;;;;;;0.45;0.20;;;16.90;75.30;;;;;;6221421;22;20024;-79
2023/04/16 12:38:28;;;;;;;4.13;1.45;;;16.90;74.60;;;;;;6247559;22;20020;-78
2023/04/16 12:40:56;;;;;;;0.90;0.35;;;16.90;73.40;;;;;;6221496;22;20019;-79
2023/04/16 12:43:24;;;;;;;0.70;0.20;;;16.90;74.00;;;;;;6222426;22;20081;-80
2023/04/16 12:45:51;;;;;;;0.52;0.20;;;16.90;71.60;;;;;;6246770;22;20023;-79
2023/04/16 12:48:18;;;;;;;1.08;0.30;;;17.00;72.00;;;;;;6220923;22;20012;-78
2023/04/16 12:50:45;;;;;;;0.60;0.30;;;17.00;72.20;;;;;;6220626;22;20078;-80
2023/04/16 12:53:13;;;;;;;1.15;0.40;;;16.90;72.90;;;;;;6221694;22;20102;-81